Time;durP1;ratioP1;P1;durP2;ratioP2;P2;SDS_P1;SDS_P2;PMS_P1;PMS_P2;Temp;Humidity;BMP_temperature;BMP_pressure;BME280_temperature;BME280_humidity;BME280_pressure;Samples;Min_cycle;Max_cycle;Signal;HPM_P1;HPM_P2
2022/09/11 00:01:05;;;;;;;17.80;15.38;;;487.30;2380.80;;;;;;5069908;28;20071;-81
2022/09/11 00:03:31;;;;;;;22.92;15.43;;;487.20;2380.80;;;;;;5038599;28;20025;-83
2022/09/11 00:06:05;;;;;;;21.27;15.60;;;512.30;2380.80;;;;;;5045301;28;20082;-83
2022/09/11 00:08:31;;;;;;;18.75;14.80;;;487.20;2380.80;;;;;;5043181;28;20025;-84
2022/09/11 00:11:07;;;;;;;17.77;14.52;;;487.10;2380.80;;;;;;5044171;28;20032;-83
2022/09/11 00:13:34;;;;;;;17.52;15.07;;;487.10;2380.80;;;;;;5043423;28;20497;-83
2022/09/11 00:16:02;;;;;;;17.13;15.40;;;487.10;2380.80;;;;;;5041201;28;20041;-83
2022/09/11 00:18:28;;;;;;;19.50;15.55;;;487.10;2380.80;;;;;;5048322;28;20044;-82
2022/09/11 00:20:56;;;;;;;21.58;15.70;;;487.00;2380.80;;;;;;5044549;28;20047;-83
2022/09/11 00:23:25;;;;;;;16.15;14.38;;;487.00;2380.80;;;;;;5043752;28;20411;-82
2022/09/11 00:25:51;;;;;;;18.27;16.23;;;487.00;2380.80;;;;;;5045523;28;20120;-83
2022/09/11 00:28:24;;;;;;;21.40;17.15;;;486.70;2355.20;;;;;;5039808;28;20025;-82
2022/09/11 00:31:01;;;;;;;21.70;17.50;;;;;;;;;;5034843;28;20053;-83
2022/09/11 00:33:28;;;;;;;26.75;19.10;;;487.00;2380.80;;;;;;5035456;28;20021;-81
2022/09/11 00:36:00;;;;;;;22.08;18.80;;;487.00;2150.40;;;;;;5078294;28;20041;-82
2022/09/11 00:38:27;;;;;;;25.83;18.70;;;487.00;2380.80;;;;;;5076865;28;20052;-83
2022/09/11 00:40:54;;;;;;;23.30;18.40;;;;;;;;;;5044098;28;20281;-83
2022/09/11 00:43:20;;;;;;;25.73;20.80;;;;;;;;;;5042989;28;20037;-82
2022/09/11 00:45:48;;;;;;;25.58;20.20;;;;;;;;;;5035887;28;20479;-82
2022/09/11 00:48:17;;;;;;;21.85;19.50;;;;;;;;;;5042940;28;20025;-83
2022/09/11 00:50:43;;;;;;;20.70;18.33;;;487.30;2380.80;;;;;;5042119;28;20116;-83
2022/09/11 00:53:13;;;;;;;24.58;21.95;;;487.10;2380.80;;;;;;5039501;28;20033;-83
2022/09/11 00:55:43;;;;;;;25.40;21.73;;;486.80;2380.80;;;;;;5051391;28;20474;-82
2022/09/11 00:58:20;;;;;;;23.95;20.88;;;486.80;2380.80;;;;;;5040954;28;20029;-83
2022/09/11 01:00:46;;;;;;;22.50;20.10;;;486.90;2380.80;;;;;;5042202;28;20036;-83
2022/09/11 01:03:13;;;;;;;27.55;20.75;;;512.70;1996.80;;;;;;5045185;28;20146;-83
2022/09/11 01:05:42;;;;;;;28.90;21.95;;;487.00;2380.80;;;;;;5040189;28;20475;-83
2022/09/11 01:08:09;;;;;;;29.27;20.55;;;487.00;2124.80;;;;;;5044562;28;20382;-82
2022/09/11 01:10:58;;;;;;;27.02;19.42;;;487.10;2380.80;;;;;;5036919;28;20026;-83
2022/09/11 01:13:33;;;;;;;24.10;19.38;;;487.00;2380.80;;;;;;5037165;28;20039;-81
2022/09/11 01:16:04;;;;;;;23.80;19.08;;;487.00;2380.80;;;;;;5049277;28;20105;-83
2022/09/11 01:19:14;;;;;;;20.50;18.30;;;487.00;2124.80;;;;;;5038565;28;20805;-83
2022/09/11 01:22:03;;;;;;;22.80;18.50;;;487.00;2278.40;;;;;;5045101;28;20120;-83
2022/09/11 01:24:40;;;;;;;20.85;18.00;;;487.00;2227.20;;;;;;5046533;28;20059;-83
2022/09/11 01:27:25;;;;;;;22.73;16.40;;;486.90;2380.80;;;;;;5046620;28;20025;-83
2022/09/11 01:30:05;;;;;;;24.27;18.20;;;;;;;;;;5032804;28;20037;-83
2022/09/11 01:32:31;;;;;;;20.75;16.45;;;;;;;;;;5038487;28;20108;-82
2022/09/11 01:35:03;;;;;;;18.23;16.33;;;;;;;;;;5044144;28;20021;-82
2022/09/11 01:37:49;;;;;;;25.65;18.00;;;;;;;;;;5038557;28;20046;-82
2022/09/11 01:40:21;;;;;;;18.63;14.85;;;;;;;;;;5070443;28;20018;-84
2022/09/11 01:42:47;;;;;;;;;;;;;;;;;;5042559;28;20025;-82
2022/09/11 01:45:15;;;;;;;16.88;13.52;;;;;;;;;;5040187;28;20278;-84
2022/09/11 01:47:42;;;;;;;15.07;13.65;;;;;;;;;;5040826;28;20029;-83
2022/09/11 01:50:10;;;;;;;18.15;15.45;;;;;;;;;;5042603;28;20029;-84
2022/09/11 01:52:41;;;;;;;16.38;14.55;;;;;;;;;;5039572;28;20041;-85
2022/09/11 01:55:10;;;;;;;21.10;15.95;;;;;;;;;;5035340;28;20017;-84
2022/09/11 01:57:40;;;;;;;20.67;17.83;;;;;;;;;;5053658;28;20371;-85
2022/09/11 02:00:10;;;;;;;23.38;17.95;;;486.80;2380.80;;;;;;5053476;28;20458;-84
2022/09/11 02:02:43;;;;;;;26.08;17.80;;;486.70;2380.80;;;;;;5040768;28;20479;-84
2022/09/11 02:05:32;;;;;;;20.63;17.10;;;461.70;2380.80;;;;;;5043951;28;20057;-84
2022/09/11 02:08:07;;;;;;;21.77;17.55;;;486.60;2380.80;;;;;;5042972;28;20048;-84
2022/09/11 02:10:41;;;;;;;23.83;19.73;;;486.60;2380.80;;;;;;5069807;28;20039;-84
2022/09/11 02:13:14;;;;;;;28.52;21.00;;;486.50;2380.80;;;;;;5036095;28;20029;-84
2022/09/11 02:15:45;;;;;;;22.80;18.38;;;461.70;2380.80;;;;;;5044394;28;20039;-84
2022/09/11 02:19:02;;;;;;;23.20;18.90;;;486.40;2380.80;;;;;;5041757;28;20025;-83
2022/09/11 02:21:29;;;;;;;28.63;19.80;;;486.60;2380.80;;;;;;5048978;28;20040;-84
2022/09/11 02:23:56;;;;;;;29.30;20.80;;;486.50;2380.80;;;;;;5051700;28;20386;-83
2022/09/11 02:26:25;;;;;;;26.70;20.35;;;486.40;2380.80;;;;;;5046327;28;20063;-84
2022/09/11 02:28:52;;;;;;;34.72;22.42;;;486.50;2380.80;;;;;;5039013;28;20032;-84
2022/09/11 02:31:19;;;;;;;37.15;24.73;;;486.40;2380.80;;;;;;5041742;28;20078;-84
2022/09/11 02:33:45;;;;;;;28.60;21.52;;;486.40;2380.80;;;;;;5073824;28;20056;-84
2022/09/11 02:36:40;;;;;;;31.70;23.20;;;486.50;2380.80;;;;;;5037401;28;20040;-83
2022/09/11 02:39:28;;;;;;;33.30;22.25;;;486.50;2380.80;;;;;;5031067;28;20061;-84
2022/09/11 02:42:18;;;;;;;34.40;23.40;;;486.50;2380.80;;;;;;5039375;28;20025;-84
2022/09/11 02:45:06;;;;;;;32.03;21.67;;;486.50;2380.80;;;;;;5031078;28;20072;-82
2022/09/11 02:47:39;;;;;;;41.10;23.55;;;486.40;2380.80;;;;;;5049503;28;20032;-82
2022/09/11 02:50:25;;;;;;;37.63;23.10;;;461.70;2355.20;;;;;;5047854;28;20036;-82
2022/09/11 02:53:06;;;;;;;48.00;22.67;;;461.70;2380.80;;;;;;5049185;28;20033;-84
2022/09/11 02:55:54;;;;;;;33.97;20.92;;;461.70;2380.80;;;;;;5041034;28;20371;-84
2022/09/11 02:58:35;;;;;;;29.73;20.35;;;461.70;2380.80;;;;;;5033312;28;20032;-84
2022/09/11 03:01:02;;;;;;;33.70;22.48;;;461.70;2380.80;;;;;;5043784;28;20029;-84
2022/09/11 03:03:35;;;;;;;26.63;20.23;;;461.70;2380.80;;;;;;5038769;28;20467;-83
2022/09/11 03:06:01;;;;;;;34.42;20.73;;;461.70;2380.80;;;;;;5038358;28;20368;-84
2022/09/11 03:08:27;;;;;;;29.88;21.67;;;461.70;2380.80;;;;;;5041110;28;20044;-84
2022/09/11 03:10:54;;;;;;;36.03;20.45;;;486.40;2380.80;;;;;;5039330;28;20110;-85
2022/09/11 03:13:20;;;;;;;33.53;20.55;;;486.40;2380.80;;;;;;5046426;28;20048;-84
2022/09/11 03:15:46;;;;;;;34.08;21.48;;;486.40;2380.80;;;;;;5043912;28;20026;-84
2022/09/11 03:18:14;;;;;;;40.85;22.48;;;461.70;2380.80;;;;;;5043328;28;20033;-84
2022/09/11 03:20:45;;;;;;;36.83;22.55;;;461.70;2380.80;;;;;;5040716;28;20112;-84
2022/09/11 03:23:12;;;;;;;39.28;24.33;;;461.60;2380.80;;;;;;5040145;28;20033;-84
2022/09/11 03:25:39;;;;;;;40.28;23.98;;;;;;;;;;5074654;28;20052;-84
2022/09/11 03:28:05;;;;;;;42.28;21.63;;;;;;;;;;5044605;28;20092;-84
2022/09/11 03:30:32;;;;;;;46.70;24.75;;;;;;;;;;5046390;28;20060;-83
2022/09/11 03:32:59;;;;;;;47.45;22.95;;;;;;;;;;5045266;28;20026;-84
2022/09/11 03:35:26;;;;;;;53.75;24.27;;;;;;;;;;5040056;28;20472;-84
2022/09/11 03:37:54;;;;;;;43.83;23.20;;;;;;;;;;4997784;28;1259346;-84
2022/09/11 03:40:21;;;;;;;28.00;18.90;;;486.60;2380.80;;;;;;5049832;28;20033;-84
2022/09/11 03:42:47;;;;;;;24.90;19.75;;;486.40;2380.80;;;;;;5055565;28;20032;-82
2022/09/11 03:45:13;;;;;;;27.10;19.63;;;486.40;2380.80;;;;;;5041259;28;20104;-84
2022/09/11 03:47:40;;;;;;;27.80;19.80;;;461.70;2380.80;;;;;;5081413;28;20598;-84
2022/09/11 03:50:07;;;;;;;20.23;16.75;;;461.70;2380.80;;;;;;5051164;28;20029;-84
2022/09/11 03:52:34;;;;;;;21.05;17.42;;;461.70;2380.80;;;;;;5045208;28;20044;-83
2022/09/11 03:55:01;;;;;;;19.38;16.60;;;461.70;2380.80;;;;;;5050532;28;20061;-84
2022/09/11 03:57:27;;;;;;;30.10;19.67;;;486.70;2380.80;;;;;;5034346;28;20485;-83
2022/09/11 03:59:54;;;;;;;25.60;19.52;;;461.70;2380.80;;;;;;5045720;28;20145;-84
2022/09/11 04:02:22;;;;;;;31.50;20.10;;;461.50;2380.80;;;;;;5041268;28;20043;-83
2022/09/11 04:04:48;;;;;;;41.90;24.10;;;;;;;;;;5074088;28;20037;-82
2022/09/11 04:07:14;;;;;;;73.90;26.63;;;461.60;2380.80;;;;;;5043056;28;20025;-84
2022/09/11 04:09:40;;;;;;;42.53;25.35;;;461.30;2380.80;;;;;;5036836;28;20092;-83
2022/09/11 04:12:06;;;;;;;64.28;27.30;;;461.50;2380.80;;;;;;5081014;28;20025;-84
2022/09/11 04:14:31;;;;;;;39.22;24.98;;;461.20;2380.80;;;;;;5042400;28;20029;-84
2022/09/11 04:16:58;;;;;;;43.55;25.98;;;;;;;;;;5043701;28;20027;-84
2022/09/11 04:19:24;;;;;;;35.33;24.67;;;;;;;;;;5045342;28;20064;-83
2022/09/11 04:21:50;;;;;;;39.65;25.02;;;;;;;;;;5043424;28;20025;-84
2022/09/11 04:24:16;;;;;;;35.22;23.90;;;;;;;;;;5047769;28;20111;-84
2022/09/11 04:26:42;;;;;;;41.08;25.40;;;486.40;2380.80;;;;;;5046651;28;20086;-83
2022/09/11 04:29:08;;;;;;;44.97;25.95;;;486.50;2380.80;;;;;;5073969;28;20382;-84
2022/09/11 04:31:34;;;;;;;37.53;24.63;;;461.70;2380.80;;;;;;5040731;28;20033;-84
2022/09/11 04:34:00;;;;;;;30.40;20.38;;;461.60;2380.80;;;;;;5043656;28;20029;-84
2022/09/11 04:36:28;;;;;;;27.13;19.60;;;461.60;2380.80;;;;;;5041638;28;20037;-82
2022/09/11 04:38:56;;;;;;;26.13;19.55;;;461.60;2380.80;;;;;;5047385;28;20029;-84
2022/09/11 04:41:23;;;;;;;25.50;19.08;;;461.70;2380.80;;;;;;5043816;28;20560;-84
2022/09/11 04:43:57;;;;;;;27.08;17.75;;;461.70;2380.80;;;;;;5047907;28;21317;-86
2022/09/11 04:46:23;;;;;;;24.25;17.55;;;461.60;2380.80;;;;;;5046533;28;20032;-85
2022/09/11 04:48:51;;;;;;;26.23;19.55;;;461.50;2380.80;;;;;;5069589;28;20025;-85
2022/09/11 04:51:29;;;;;;;31.33;21.25;;;461.40;2380.80;;;;;;5035118;28;20105;-85
2022/09/11 04:53:56;;;;;;;34.63;23.00;;;461.40;2380.80;;;;;;5042634;28;20532;-85
2022/09/11 04:56:23;;;;;;;33.08;24.98;;;;;;;;;;5048723;28;20048;-85
2022/09/11 04:58:56;;;;;;;29.67;21.02;;;;;;;;;;5043634;28;20033;-85
2022/09/11 05:01:22;;;;;;;34.20;24.50;;;;;;;;;;5049379;28;20029;-86
2022/09/11 05:03:49;;;;;;;32.33;23.02;;;;;;;;;;5033335;28;20029;-85
2022/09/11 05:06:15;;;;;;;37.65;26.42;;;;;;;;;;5040376;28;20029;-84
2022/09/11 05:08:43;;;;;;;38.17;24.33;;;;;;;;;;5042254;28;20044;-85
2022/09/11 05:11:10;;;;;;;41.88;24.52;;;;;;;;;;5042073;28;20028;-85
2022/09/11 05:13:36;;;;;;;34.20;22.08;;;;;;;;;;5049820;28;20041;-83
2022/09/11 05:16:03;;;;;;;34.15;23.95;;;;;;;;;;5054044;28;20059;-85
2022/09/11 05:18:30;;;;;;;34.92;23.08;;;;;;;;;;5052759;28;20043;-84
2022/09/11 05:21:02;;;;;;;31.98;21.63;;;;;;;;;;5042567;28;20025;-84
2022/09/11 05:23:30;;;;;;;32.53;21.75;;;486.40;2380.80;;;;;;5047356;28;20386;-85
2022/09/11 05:26:01;;;;;;;30.40;20.90;;;461.70;2380.80;;;;;;5038607;28;20033;-85
2022/09/11 05:28:28;;;;;;;30.77;21.42;;;461.70;2380.80;;;;;;5039191;28;20109;-85
2022/09/11 05:30:54;;;;;;;26.48;18.63;;;461.60;2380.80;;;;;;5070399;28;20032;-86
2022/09/11 05:33:24;;;;;;;23.92;18.33;;;461.70;2380.80;;;;;;5048077;28;20120;-84
2022/09/11 05:35:51;;;;;;;24.65;18.63;;;461.70;2380.80;;;;;;5040296;28;20069;-85
2022/09/11 05:38:18;;;;;;;24.40;18.85;;;461.70;2380.80;;;;;;5043234;28;20425;-85
2022/09/11 05:40:48;;;;;;;23.13;17.98;;;461.70;2355.20;;;;;;5036797;28;20390;-84
2022/09/11 05:43:18;;;;;;;24.85;18.33;;;486.40;2380.80;;;;;;5049623;28;20462;-83
2022/09/11 05:45:52;;;;;;;23.20;18.75;;;486.40;2380.80;;;;;;5038490;28;20041;-85
2022/09/11 05:48:18;;;;;;;24.48;19.15;;;486.50;2380.80;;;;;;5046014;28;20103;-85
2022/09/11 05:50:52;;;;;;;22.50;17.40;;;486.50;2380.80;;;;;;5043611;28;20116;-85
2022/09/11 05:53:19;;;;;;;18.63;16.05;;;486.60;2380.80;;;;;;5040839;28;20029;-85
2022/09/11 05:55:46;;;;;;;19.35;16.08;;;486.60;2380.80;;;;;;5073360;28;20033;-85
2022/09/11 05:58:12;;;;;;;18.67;14.57;;;486.70;2380.80;;;;;;5044628;28;20033;-85
2022/09/11 06:00:39;;;;;;;18.92;15.65;;;486.70;2380.80;;;;;;5044373;28;20145;-85
2022/09/11 06:03:06;;;;;;;17.90;16.00;;;486.70;2380.80;;;;;;5038053;28;20033;-84
2022/09/11 06:05:32;;;;;;;19.25;17.23;;;486.80;2380.80;;;;;;5070506;28;20125;-84
2022/09/11 06:08:00;;;;;;;23.55;20.27;;;486.80;2380.80;;;;;;5039955;28;20029;-85
2022/09/11 06:10:26;;;;;;;25.13;20.55;;;486.80;2380.80;;;;;;5036310;28;20025;-84
2022/09/11 06:12:52;;;;;;;24.17;20.63;;;486.80;2380.80;;;;;;5040070;28;20037;-84
2022/09/11 06:15:18;;;;;;;23.65;19.40;;;486.60;2380.80;;;;;;5045016;28;20029;-83
2022/09/11 06:17:44;;;;;;;20.65;18.50;;;486.70;2380.80;;;;;;5042232;28;20025;-85
2022/09/11 06:20:11;;;;;;;19.95;16.85;;;486.70;2380.80;;;;;;5043637;28;20029;-84
2022/09/11 06:22:37;;;;;;;21.00;17.20;;;486.70;2380.80;;;;;;5041693;28;20394;-84
2022/09/11 06:25:03;;;;;;;20.63;17.67;;;487.00;2380.80;;;;;;5043587;28;20119;-85
2022/09/11 06:27:29;;;;;;;20.92;16.88;;;537.60;2406.40;;;;;;5042616;28;20414;-84
2022/09/11 06:29:55;;;;;;;24.23;20.13;;;486.60;2380.80;;;;;;5075094;28;20037;-85
2022/09/11 06:32:21;;;;;;;27.23;20.17;;;486.50;2380.80;;;;;;5039078;28;20032;-83
2022/09/11 06:34:47;;;;;;;22.05;19.83;;;486.70;2380.80;;;;;;5038107;28;20116;-84
2022/09/11 06:37:13;;;;;;;23.30;19.20;;;486.80;2380.80;;;;;;5036774;28;20052;-86
2022/09/11 06:39:39;;;;;;;25.92;21.35;;;486.80;2380.80;;;;;;5043008;28;20041;-85
2022/09/11 06:42:06;;;;;;;24.38;20.65;;;486.90;2380.80;;;;;;5044432;28;20036;-86
2022/09/11 06:44:32;;;;;;;20.10;17.05;;;486.80;2380.80;;;;;;5047371;28;20036;-84
2022/09/11 06:46:58;;;;;;;21.42;18.90;;;487.00;2380.80;;;;;;5045116;28;20485;-85
2022/09/11 06:49:24;;;;;;;19.75;17.65;;;487.00;2380.80;;;;;;5047235;28;20029;-85
2022/09/11 06:51:51;;;;;;;20.55;18.55;;;487.00;2380.80;;;;;;5050320;28;20025;-86
2022/09/11 06:54:17;;;;;;;20.52;18.42;;;486.90;2380.80;;;;;;5056130;28;20033;-84
2022/09/11 06:56:44;;;;;;;21.00;17.02;;;487.00;2380.80;;;;;;5048398;28;20021;-84
2022/09/11 06:59:10;;;;;;;19.77;17.77;;;487.10;2380.80;;;;;;5036175;28;20537;-84
2022/09/11 07:01:35;;;;;;;21.05;18.73;;;487.20;2380.80;;;;;;5043293;28;20036;-86
2022/09/11 07:04:02;;;;;;;19.17;17.27;;;487.30;2380.80;;;;;;5042749;28;20041;-83
2022/09/11 07:06:31;;;;;;;19.40;17.42;;;487.20;2278.40;;;;;;5044106;28;20033;-83
2022/09/11 07:09:01;;;;;;;17.60;15.90;;;487.30;2380.80;;;;;;5074806;28;20060;-83
2022/09/11 07:11:32;;;;;;;20.70;18.67;;;512.00;2380.80;;;;;;5041915;28;20422;-82
2022/09/11 07:14:04;;;;;;;31.65;25.42;;;487.10;2380.80;;;;;;5043334;28;20037;-81
2022/09/11 07:16:30;;;;;;;;;;;487.20;2380.80;;;;;;5044770;28;20437;-83
2022/09/11 07:18:57;;;;;;;26.30;20.40;;;487.30;2380.80;;;;;;5046748;28;19908;-83
2022/09/11 07:21:25;;;;;;;23.38;19.38;;;512.00;2278.40;;;;;;5049829;28;20024;-83
2022/09/11 07:23:54;;;;;;;22.83;17.55;;;512.10;2380.80;;;;;;5053563;28;20453;-81
2022/09/11 07:26:21;;;;;;;18.50;16.50;;;512.00;2329.60;;;;;;5043138;28;20033;-81
2022/09/11 07:28:49;;;;;;;17.73;15.82;;;512.10;2380.80;;;;;;5075305;28;20474;-83
2022/09/11 07:31:33;;;;;;;17.27;15.45;;;512.10;2022.40;;;;;;5040436;28;20083;-80
2022/09/11 07:34:00;;;;;;;18.88;16.98;;;512.60;2380.80;;;;;;5047911;28;20536;-82
2022/09/11 07:36:29;;;;;;;21.63;19.33;;;512.70;2380.80;;;;;;5037025;28;20049;-81
2022/09/11 07:38:56;;;;;;;19.88;17.65;;;512.80;2380.80;;;;;;5046344;28;20025;-82
2022/09/11 07:41:25;;;;;;;19.98;18.08;;;537.70;2406.40;;;;;;5044713;28;20372;-82
2022/09/11 07:44:06;;;;;;;17.73;15.98;;;537.70;2355.20;;;;;;5045881;28;20043;-81
2022/09/11 07:46:32;;;;;;;19.27;17.13;;;;;;;;;;5037925;28;20028;-82
2022/09/11 07:48:58;;;;;;;19.52;16.73;;;;;;;;;;5045814;28;20017;-81
2022/09/11 07:51:25;;;;;;;20.52;16.85;;;;;;;;;;5041446;28;20374;-81
2022/09/11 07:53:53;;;;;;;16.10;14.43;;;;;;;;;;5039001;28;20479;-81
2022/09/11 07:56:23;;;;;;;16.30;14.57;;;;;;;;;;5041134;28;20024;-82
2022/09/11 07:58:49;;;;;;;16.40;13.93;;;;;;;;;;5050762;28;20021;-82
2022/09/11 08:01:17;;;;;;;20.00;15.95;;;;;;;;;;5043917;28;20035;-82
2022/09/11 08:03:44;;;;;;;16.27;14.57;;;;;;;;;;5045426;28;20480;-84
2022/09/11 08:06:14;;;;;;;16.30;12.45;;;;;;;;;;5049174;28;20036;-83
2022/09/11 08:08:41;;;;;;;13.73;11.95;;;;;;;;;;5043385;28;20478;-79
2022/09/11 08:11:11;;;;;;;13.05;11.73;;;;;;;;;;5033670;28;20037;-81
2022/09/11 08:13:37;;;;;;;12.80;11.50;;;;;;;;;;5043415;28;20501;-82
2022/09/11 08:16:04;;;;;;;15.73;11.73;;;;;;;;;;5054359;28;20022;-83
2022/09/11 08:18:30;;;;;;;13.40;12.05;;;;;;;;;;5051163;28;20148;-87
2022/09/11 08:21:09;;;;;;;12.65;7.32;;;;;;;;;;5042097;28;20025;-85
2022/09/11 08:23:36;;;;;;;10.13;8.18;;;;;;;;;;5046359;28;20030;-84
2022/09/11 08:26:20;;;;;;;12.00;9.02;;;;;;;;;;5054595;28;20025;-83
2022/09/11 08:28:47;;;;;;;13.65;8.23;;;;;;;;;;5062555;28;20051;-82
2022/09/11 08:31:13;;;;;;;11.27;8.77;;;;;;;;;;5054622;28;20047;-83
2022/09/11 08:33:39;;;;;;;16.42;9.10;;;;;;;;;;5045922;28;20044;-83
2022/09/11 08:36:08;;;;;;;11.30;9.57;;;;;;;;;;5046295;28;20045;-83
2022/09/11 08:38:34;;;;;;;10.50;9.50;;;;;;;;;;5042218;28;20025;-82
2022/09/11 08:41:10;;;;;;;13.50;10.90;;;;;;;;;;5041138;28;20025;-83
2022/09/11 08:43:38;;;;;;;11.63;10.27;;;;;;;;;;5040220;28;20068;-83
2022/09/11 08:46:08;;;;;;;12.73;11.25;;;563.90;2432.00;;;;;;5038654;28;20052;-86
2022/09/11 08:48:53;;;;;;;10.27;8.85;;;;;;;;;;5043724;28;20028;-82
2022/09/11 08:51:19;;;;;;;11.85;10.65;;;;;;;;;;5045377;28;20131;-84
2022/09/11 08:53:45;;;;;;;10.63;8.65;;;;;;;;;;5041472;28;20076;-84
2022/09/11 08:56:14;;;;;;;10.55;9.32;;;;;;;;;;5042567;28;20383;-84
2022/09/11 08:58:52;;;;;;;13.20;11.80;;;;;;;;;;5052442;28;20056;-83
2022/09/11 09:01:45;;;;;;;12.27;10.98;;;588.90;2432.00;;;;;;5039631;28;20064;-87
2022/09/11 09:04:30;;;;;;;12.27;11.07;;;;;;;;;;5043895;28;20034;-86
2022/09/11 09:07:10;;;;;;;11.50;10.15;;;;;;;;;;5039929;28;20034;-86
2022/09/11 09:09:36;;;;;;;11.50;10.40;;;;;;;;;;5045748;28;20021;-86
2022/09/11 09:12:10;;;;;;;12.50;11.07;;;;;;;;;;5039415;28;20104;-86
2022/09/11 09:14:50;;;;;;;12.93;11.55;;;;;;;;;;5039458;28;20156;-86
2022/09/11 09:17:35;;;;;;;15.05;10.77;;;;;;;;;;5042067;28;20131;-86
2022/09/11 09:20:05;;;;;;;12.13;10.80;;;;;;;;;;5046292;28;20028;-85
2022/09/11 09:22:34;;;;;;;15.40;10.65;;;;;;;;;;5040619;28;20112;-83
2022/09/11 09:25:05;;;;;;;15.18;10.98;;;614.70;2432.00;;;;;;5037456;28;20514;-84
2022/09/11 09:27:46;;;;;;;12.05;9.70;;;614.70;2432.00;;;;;;5045776;28;20048;-85
2022/09/11 09:30:22;;;;;;;11.00;9.93;;;614.50;2432.00;;;;;;5037519;28;20028;-83
2022/09/11 09:32:54;;;;;;;11.73;10.63;;;614.80;2432.00;;;;;;5042535;28;20154;-84
2022/09/11 09:35:33;;;;;;;11.02;9.85;;;614.90;2432.00;;;;;;5072008;28;20025;-83
2022/09/11 09:37:58;;;;;;;12.18;10.18;;;614.80;2432.00;;;;;;5047932;28;20033;-86
2022/09/11 09:40:26;;;;;;;11.80;10.18;;;614.70;2432.00;;;;;;5043165;28;21958;-86
2022/09/11 09:43:11;;;;;;;11.73;10.35;;;614.50;2432.00;;;;;;5041041;28;20531;-86
2022/09/11 09:46:06;;;;;;;11.15;10.02;;;614.40;2432.00;;;;;;5045995;28;20033;-84
2022/09/11 09:48:38;;;;;;;10.88;9.88;;;614.40;2432.00;;;;;;5071825;28;20468;-86
2022/09/11 09:51:04;;;;;;;11.65;9.48;;;614.40;2432.00;;;;;;5038419;28;20026;-84
2022/09/11 09:53:40;;;;;;;10.45;9.25;;;614.70;2432.00;;;;;;5046270;28;20041;-85
2022/09/11 09:56:06;;;;;;;18.73;10.65;;;614.60;2432.00;;;;;;5053009;28;20032;-84
2022/09/11 09:59:07;;;;;;;12.48;10.82;;;614.60;2432.00;;;;;;5041945;28;20083;-86
2022/09/11 10:01:50;;;;;;;12.32;11.13;;;614.60;2432.00;;;;;;5014922;28;20049;-86
2022/09/11 10:04:21;;;;;;;13.65;11.95;;;614.50;2432.00;;;;;;5046499;28;20031;-86
2022/09/11 10:06:50;;;;;;;12.40;11.20;;;614.70;2432.00;;;;;;5052206;28;20032;-88
2022/09/11 10:09:28;;;;;;;13.60;12.23;;;614.80;2432.00;;;;;;5049483;28;20025;-86
2022/09/11 10:12:07;;;;;;;12.65;11.35;;;615.00;2432.00;;;;;;5048615;28;20033;-84
2022/09/11 10:14:44;;;;;;;13.57;11.77;;;615.20;2432.00;;;;;;5051122;28;20071;-86
2022/09/11 10:17:29;;;;;;;12.45;11.15;;;615.30;2432.00;;;;;;5038598;28;20060;-86
2022/09/11 10:20:12;;;;;;;11.30;10.00;;;640.10;2432.00;;;;;;5039535;28;20035;-86
2022/09/11 10:22:38;;;;;;;11.00;10.00;;;640.20;2432.00;;;;;;5044289;28;20037;-85
2022/09/11 10:25:11;;;;;;;11.40;10.40;;;640.40;2432.00;;;;;;5081571;28;20052;-85
2022/09/11 10:27:58;;;;;;;13.20;11.43;;;640.50;2432.00;;;;;;5050703;28;20035;-86
2022/09/11 10:30:39;;;;;;;12.45;11.27;;;665.60;2432.00;;;;;;5046569;28;20036;-86
2022/09/11 10:33:29;;;;;;;14.07;10.93;;;640.90;2432.00;;;;;;5048751;28;20094;-83
2022/09/11 10:35:57;;;;;;;17.05;15.30;;;665.70;2432.00;;;;;;5024517;28;20083;-85
2022/09/11 10:38:28;;;;;;;14.75;11.63;;;665.90;2432.00;;;;;;5043604;28;20087;-84
2022/09/11 10:41:07;;;;;;;13.70;12.20;;;666.00;2432.00;;;;;;5043350;28;20025;-83
2022/09/11 10:43:41;;;;;;;12.85;11.60;;;666.20;2432.00;;;;;;5043916;28;20293;-84
2022/09/11 10:46:17;;;;;;;16.45;11.55;;;666.20;2432.00;;;;;;5045584;28;20489;-85
2022/09/11 10:48:54;;;;;;;12.57;11.38;;;666.20;2432.00;;;;;;5046571;28;20038;-84
2022/09/11 10:51:22;;;;;;;12.50;10.65;;;666.10;2432.00;;;;;;5050419;28;20090;-85
2022/09/11 10:54:07;;;;;;;11.98;10.77;;;666.00;2432.00;;;;;;5041955;28;20034;-85
2022/09/11 10:56:41;;;;;;;12.15;10.80;;;666.00;2432.00;;;;;;5055687;28;20033;-85
2022/09/11 10:59:16;;;;;;;13.80;10.98;;;666.20;2432.00;;;;;;5049267;28;20025;-84
2022/09/11 11:01:43;;;;;;;13.13;11.73;;;666.20;2432.00;;;;;;5039865;28;20136;-85
2022/09/11 11:04:11;;;;;;;11.70;10.60;;;691.40;2432.00;;;;;;5036311;28;20124;-85
2022/09/11 11:06:46;;;;;;;12.73;11.02;;;691.30;2432.00;;;;;;5036736;28;20124;-85
2022/09/11 11:09:29;;;;;;;10.73;9.73;;;691.70;2432.00;;;;;;5044873;28;20033;-84
2022/09/11 11:12:13;;;;;;;12.45;10.55;;;691.60;2432.00;;;;;;5053707;28;20025;-83
2022/09/11 11:14:53;;;;;;;12.55;11.27;;;691.40;2432.00;;;;;;5050704;28;20024;-85
2022/09/11 11:17:22;;;;;;;12.95;11.65;;;;;;;;;;5048780;28;20082;-84
2022/09/11 11:20:02;;;;;;;10.48;9.32;;;;;;;;;;5044826;28;20028;-83
2022/09/11 11:22:46;;;;;;;9.85;8.85;;;666.20;2432.00;;;;;;5042966;28;20029;-83
2022/09/11 11:25:12;;;;;;;12.32;9.05;;;666.10;2432.00;;;;;;5041305;28;20540;-84
2022/09/11 11:28:06;;;;;;;10.02;8.52;;;665.80;2432.00;;;;;;5042349;28;20052;-83
2022/09/11 11:30:35;;;;;;;10.55;9.38;;;665.70;2432.00;;;;;;5040138;28;22384;-84
2022/09/11 11:33:16;;;;;;;14.80;9.90;;;666.40;2432.00;;;;;;5048732;28;20036;-84
2022/09/11 11:35:47;;;;;;;10.15;9.15;;;691.60;2432.00;;;;;;5045134;28;20033;-84
2022/09/11 11:38:21;;;;;;;9.55;8.50;;;691.90;2432.00;;;;;;5038849;28;20088;-84
2022/09/11 11:41:03;;;;;;;10.85;7.65;;;692.10;2432.00;;;;;;5080380;28;20171;-83
2022/09/11 11:43:33;;;;;;;10.93;9.13;;;692.00;2432.00;;;;;;5053201;28;20060;-85
2022/09/11 11:46:20;;;;;;;12.40;9.35;;;692.10;2432.00;;;;;;5047884;28;20068;-82
2022/09/11 11:49:03;;;;;;;9.15;8.35;;;692.10;2432.00;;;;;;5073677;28;20367;-84
2022/09/11 11:51:42;;;;;;;9.60;8.20;;;716.90;2432.00;;;;;;5048869;28;20363;-83
2022/09/11 11:54:16;;;;;;;10.48;9.27;;;717.40;2432.00;;;;;;5049979;28;20094;-81
2022/09/11 11:56:55;;;;;;;10.27;8.77;;;717.20;2432.00;;;;;;5039297;28;20033;-81
2022/09/11 11:59:30;;;;;;;9.82;8.88;;;717.00;2432.00;;;;;;5036569;28;20386;-84
2022/09/11 12:02:25;;;;;;;9.88;8.93;;;717.50;2355.20;;;;;;5049887;28;20035;-84
2022/09/11 12:04:59;;;;;;;9.27;8.32;;;742.40;2406.40;;;;;;5048925;28;20057;-85
2022/09/11 12:07:35;;;;;;;9.25;7.60;;;742.60;2406.40;;;;;;5043179;28;20117;-83
2022/09/11 12:10:04;;;;;;;9.32;8.27;;;717.40;2329.60;;;;;;5050583;28;20025;-83
2022/09/11 12:12:42;;;;;;;10.80;9.75;;;716.90;2432.00;;;;;;5047651;28;20025;-82
2022/09/11 12:15:23;;;;;;;11.45;8.95;;;691.90;2432.00;;;;;;5044760;28;20061;-82
2022/09/11 12:18:06;;;;;;;9.25;8.30;;;691.40;2380.80;;;;;;5047049;28;20021;-84
2022/09/11 12:20:40;;;;;;;12.20;11.00;;;691.40;2432.00;;;;;;5065313;28;20052;-85
2022/09/11 12:23:27;;;;;;;11.25;9.63;;;691.40;2432.00;;;;;;5035198;28;20029;-81
2022/09/11 12:26:26;;;;;;;9.55;8.55;;;691.30;2432.00;;;;;;5037486;28;20479;-85
2022/09/11 12:29:19;;;;;;;9.82;8.80;;;691.20;2432.00;;;;;;5035390;28;20068;-84
2022/09/11 12:31:50;;;;;;;8.85;8.05;;;666.50;2432.00;;;;;;5045971;28;20056;-84
2022/09/11 12:34:45;;;;;;;8.85;7.95;;;666.40;2432.00;;;;;;5047003;28;20040;-83
2022/09/11 12:37:25;;;;;;;8.35;6.65;;;666.10;2432.00;;;;;;5040377;28;20068;-84
2022/09/11 12:39:58;;;;;;;7.10;5.72;;;666.00;2432.00;;;;;;5040651;28;20029;-85
2022/09/11 12:42:24;;;;;;;7.30;5.30;;;665.60;2432.00;;;;;;5040200;28;20033;-83
2022/09/11 12:44:50;;;;;;;7.50;6.38;;;640.90;2432.00;;;;;;5050184;28;20195;-84
2022/09/11 12:47:22;;;;;;;7.53;6.60;;;640.70;2432.00;;;;;;5049973;28;20116;-84
2022/09/11 12:50:04;;;;;;;6.95;5.25;;;640.60;2432.00;;;;;;5042947;28;20029;-83
2022/09/11 12:52:53;;;;;;;9.52;5.57;;;640.50;2432.00;;;;;;5043394;28;20044;-84
2022/09/11 12:55:38;;;;;;;9.52;7.80;;;640.20;2432.00;;;;;;5042302;28;20102;-85
2022/09/11 12:58:27;;;;;;;13.30;8.23;;;640.00;2432.00;;;;;;5036114;28;20030;-85